Ronks, PA

11:45 PM EDT on May 29, 2015 (GMT -0400)
Harrisburg International | | Change Station
CLOSE
Current Station
Airport
Location: Middletown,
Elevation: 312 ft
Nearby Weather Stations

Elev 312 ft 40.19 °N, 76.76 °W | Updated 49 minutes ago

Clear
Clear
76 °F
Feels Like 76 °F
N
6
Wind Variable Wind from SSE

Today
High -- | Low -- °F
--% Chance of Precip.
Yesterday
High -- | Low -- °F
Precip. -- in
5:39 AM 8:25 PM
Waxing Gibbous, 87% visible
Pressure 30.18 in
Visibility 10.0 miles
Clouds Mostly Cloudy 25000 ft
Dew Point 66 °F
Humidity 71%
Rainfall 0.00 in
Snow Depth Not available.
UV 0 out of 12
Pollen 8.60 out of 12
Air Quality Not available.
Flu Activity Sporadic
METAR KMDT 300256Z 16005KT 10SM BKN250 24/19 A3018 RMK AO2 SLP218 T02440189 52006

More Conditions Fewer Conditions

Pressure 30.18 in
Visibility 10.0 miles
Clouds Mostly Cloudy 25000 ft
Dew Point 66 °F
Humidity 71%
Rainfall 0.00 in
Snow Depth Not available.
UV 0 out of 12
Pollen 8.60 out of 12
Air Quality Not available.
Flu Activity Sporadic
METAR KMDT 300256Z 16005KT 10SM BKN250 24/19 A3018 RMK AO2 SLP218 T02440189 52006

More Conditions Fewer Conditions

10-Day Weather Forecast

Almanac

Astronomy

May. 29, 2015 Rise Set
Actual Time
Civil Twilight
Nautical Twilight
Astronomical Twilight
Moon
Length of Visible Light
Length of Day
Tomorrow will be .
, % of the Moon is Illuminated

Today's Extremes

State Highs State Lows

Community

WunderPhotos

Upload Photos

1,825,441 photos uploaded!

WunderBlogs® & News

Nearby

Air Quality

  Air Quality AQ Index Pollutant
Not available.

Snow Depth

Station Depth Elevation

Earthquake Activity

City Distance Mag. Time & Date
Minimum magnitude displayed is 2.5.

Coastal Water Temperatures

Place Temperature

Stations

Nearby Weather Stations

Station Location Temp. Windchill Dew Point Humidity Wind Precip. Elev Updated Type